sensor_id;sensor_type;location;lat;lon;timestamp;temperature;humidity
26745;DHT22;14342;50.960;13.880;2023-06-10T00:00:54;19.80;99.90
26745;DHT22;14342;50.960;13.880;2023-06-10T00:01:57;19.80;99.90
26745;DHT22;14342;50.960;13.880;2023-06-10T00:03:00;19.70;99.90
26745;DHT22;14342;50.960;13.880;2023-06-10T00:04:03;19.60;99.90
26745;DHT22;14342;50.960;13.880;2023-06-10T00:05:04;19.70;99.90
26745;DHT22;14342;50.960;13.880;2023-06-10T00:06:06;19.60;99.90
26745;DHT22;14342;50.960;13.880;2023-06-10T00:07:06;19.60;99.90
26745;DHT22;14342;50.960;13.880;2023-06-10T00:08:08;19.70;99.90
26745;DHT22;14342;50.960;13.880;2023-06-10T00:09:11;19.70;99.90
26745;DHT22;14342;50.960;13.880;2023-06-10T00:10:14;19.70;99.90
26745;DHT22;14342;50.960;13.880;2023-06-10T00:11:14;19.60;99.90
26745;DHT22;14342;50.960;13.880;2023-06-10T00:12:16;19.60;99.90
26745;DHT22;14342;50.960;13.880;2023-06-10T00:13:17;19.60;99.90
26745;DHT22;14342;50.960;13.880;2023-06-10T00:14:18;19.60;99.90
26745;DHT22;14342;50.960;13.880;2023-06-10T00:15:19;19.60;99.90
26745;DHT22;14342;50.960;13.880;2023-06-10T00:16:20;19.70;99.90
26745;DHT22;14342;50.960;13.880;2023-06-10T00:17:21;19.70;99.90
26745;DHT22;14342;50.960;13.880;2023-06-10T00:18:24;19.60;99.90
26745;DHT22;14342;50.960;13.880;2023-06-10T00:19:28;19.60;99.90
26745;DHT22;14342;50.960;13.880;2023-06-10T00:20:30;19.60;99.90
26745;DHT22;14342;50.960;13.880;2023-06-10T00:21:31;19.60;99.90
26745;DHT22;14342;50.960;13.880;2023-06-10T00:22:37;19.60;99.90
26745;DHT22;14342;50.960;13.880;2023-06-10T00:23:39;19.70;99.90
26745;DHT22;14342;50.960;13.880;2023-06-10T00:24:41;19.70;99.90
26745;DHT22;14342;50.960;13.880;2023-06-10T00:25:42;19.60;99.90
26745;DHT22;14342;50.960;13.880;2023-06-10T00:26:43;19.70;99.90
26745;DHT22;14342;50.960;13.880;2023-06-10T00:27:44;19.60;99.90
26745;DHT22;14342;50.960;13.880;2023-06-10T00:28:45;19.60;99.90
26745;DHT22;14342;50.960;13.880;2023-06-10T00:29:46;19.70;99.90
26745;DHT22;14342;50.960;13.880;2023-06-10T00:30:48;19.70;99.90
26745;DHT22;14342;50.960;13.880;2023-06-10T00:31:49;19.70;99.90
26745;DHT22;14342;50.960;13.880;2023-06-10T00:32:50;19.70;99.90
26745;DHT22;14342;50.960;13.880;2023-06-10T00:33:51;19.80;99.90
26745;DHT22;14342;50.960;13.880;2023-06-10T00:34:53;19.80;99.90
26745;DHT22;14342;50.960;13.880;2023-06-10T00:35:54;19.90;99.90
26745;DHT22;14342;50.960;13.880;2023-06-10T00:36:56;19.90;99.90
26745;DHT22;14342;50.960;13.880;2023-06-10T00:37:56;20.00;99.90
26745;DHT22;14342;50.960;13.880;2023-06-10T00:38:58;20.00;99.90
26745;DHT22;14342;50.960;13.880;2023-06-10T00:39:59;20.00;99.90
26745;DHT22;14342;50.960;13.880;2023-06-10T00:41:01;20.00;99.90
26745;DHT22;14342;50.960;13.880;2023-06-10T00:42:01;20.00;99.90
26745;DHT22;14342;50.960;13.880;2023-06-10T00:43:07;19.90;99.90
26745;DHT22;14342;50.960;13.880;2023-06-10T00:44:07;19.90;99.90
26745;DHT22;14342;50.960;13.880;2023-06-10T00:45:09;19.80;99.90
26745;DHT22;14342;50.960;13.880;2023-06-10T00:46:10;19.90;99.90
26745;DHT22;14342;50.960;13.880;2023-06-10T00:47:11;19.90;99.90
26745;DHT22;14342;50.960;13.880;2023-06-10T00:48:12;19.80;99.90
26745;DHT22;14342;50.960;13.880;2023-06-10T00:49:14;19.80;99.90
26745;DHT22;14342;50.960;13.880;2023-06-10T00:50:16;19.90;99.90
26745;DHT22;14342;50.960;13.880;2023-06-10T00:51:18;19.90;99.90
26745;DHT22;14342;50.960;13.880;2023-06-10T00:52:19;19.90;99.90
26745;DHT22;14342;50.960;13.880;2023-06-10T00:53:21;19.90;99.90
26745;DHT22;14342;50.960;13.880;2023-06-10T00:54:22;19.90;99.90
26745;DHT22;14342;50.960;13.880;2023-06-10T00:55:23;20.00;99.90
26745;DHT22;14342;50.960;13.880;2023-06-10T00:56:25;20.00;99.90
26745;DHT22;14342;50.960;13.880;2023-06-10T00:57:27;20.00;99.90
26745;DHT22;14342;50.960;13.880;2023-06-10T00:58:27;20.00;99.90
26745;DHT22;14342;50.960;13.880;2023-06-10T00:59:29;20.10;99.90
26745;DHT22;14342;50.960;13.880;2023-06-10T01:00:30;20.10;99.90
26745;DHT22;14342;50.960;13.880;2023-06-10T01:01:31;20.10;99.90
26745;DHT22;14342;50.960;13.880;2023-06-10T01:02:32;20.10;99.90
26745;DHT22;14342;50.960;13.880;2023-06-10T01:03:34;20.10;99.90
26745;DHT22;14342;50.960;13.880;2023-06-10T01:04:37;20.10;99.90
26745;DHT22;14342;50.960;13.880;2023-06-10T01:05:40;20.10;99.90
26745;DHT22;14342;50.960;13.880;2023-06-10T01:06:44;20.10;99.90
26745;DHT22;14342;50.960;13.880;2023-06-10T01:07:49;20.10;99.90
26745;DHT22;14342;50.960;13.880;2023-06-10T01:08:53;20.10;99.90
26745;DHT22;14342;50.960;13.880;2023-06-10T01:09:58;20.10;99.90
26745;DHT22;14342;50.960;13.880;2023-06-10T01:11:00;20.10;99.90
26745;DHT22;14342;50.960;13.880;2023-06-10T01:12:05;20.20;99.90
26745;DHT22;14342;50.960;13.880;2023-06-10T01:13:09;20.10;99.90
26745;DHT22;14342;50.960;13.880;2023-06-10T01:14:11;20.10;99.90
26745;DHT22;14342;50.960;13.880;2023-06-10T01:15:14;20.00;99.90
26745;DHT22;14342;50.960;13.880;2023-06-10T01:16:17;20.00;99.90
26745;DHT22;14342;50.960;13.880;2023-06-10T01:17:17;20.00;99.90
26745;DHT22;14342;50.960;13.880;2023-06-10T01:18:19;20.00;99.90
26745;DHT22;14342;50.960;13.880;2023-06-10T01:19:20;20.00;99.90
26745;DHT22;14342;50.960;13.880;2023-06-10T01:20:24;20.00;99.90
26745;DHT22;14342;50.960;13.880;2023-06-10T01:21:28;20.00;99.90
26745;DHT22;14342;50.960;13.880;2023-06-10T01:22:31;20.00;99.90
26745;DHT22;14342;50.960;13.880;2023-06-10T01:23:32;20.00;99.90
26745;DHT22;14342;50.960;13.880;2023-06-10T01:24:34;19.70;99.90
26745;DHT22;14342;50.960;13.880;2023-06-10T01:25:37;20.00;99.90
26745;DHT22;14342;50.960;13.880;2023-06-10T01:26:38;20.00;99.90
26745;DHT22;14342;50.960;13.880;2023-06-10T01:27:41;20.00;99.90
26745;DHT22;14342;50.960;13.880;2023-06-10T01:28:47;20.00;99.90
26745;DHT22;14342;50.960;13.880;2023-06-10T01:29:50;19.90;99.90
26745;DHT22;14342;50.960;13.880;2023-06-10T01:30:55;20.00;99.90
26745;DHT22;14342;50.960;13.880;2023-06-10T01:31:58;20.00;99.90
26745;DHT22;14342;50.960;13.880;2023-06-10T01:33:03;20.00;99.90
26745;DHT22;14342;50.960;13.880;2023-06-10T01:34:07;20.00;99.90
26745;DHT22;14342;50.960;13.880;2023-06-10T01:35:09;19.90;99.90
26745;DHT22;14342;50.960;13.880;2023-06-10T01:36:10;19.90;99.90
26745;DHT22;14342;50.960;13.880;2023-06-10T01:37:14;19.90;99.90
26745;DHT22;14342;50.960;13.880;2023-06-10T01:38:17;19.90;99.90
26745;DHT22;14342;50.960;13.880;2023-06-10T01:39:20;19.90;99.90
26745;DHT22;14342;50.960;13.880;2023-06-10T01:40:22;19.90;99.90
26745;DHT22;14342;50.960;13.880;2023-06-10T01:41:23;19.90;99.90
26745;DHT22;14342;50.960;13.880;2023-06-10T01:42:26;20.00;99.90
26745;DHT22;14342;50.960;13.880;2023-06-10T01:43:27;19.90;99.90
26745;DHT22;14342;50.960;13.880;2023-06-10T01:44:29;19.90;99.90
26745;DHT22;14342;50.960;13.880;2023-06-10T01:45:29;19.90;99.90
26745;DHT22;14342;50.960;13.880;2023-06-10T01:46:31;19.90;99.90
26745;DHT22;14342;50.960;13.880;2023-06-10T01:47:31;19.90;99.90
26745;DHT22;14342;50.960;13.880;2023-06-10T01:48:33;19.90;99.90
26745;DHT22;14342;50.960;13.880;2023-06-10T01:49:33;19.90;99.90
26745;DHT22;14342;50.960;13.880;2023-06-10T01:50:35;19.90;99.90
26745;DHT22;14342;50.960;13.880;2023-06-10T01:51:35;19.90;99.90
26745;DHT22;14342;50.960;13.880;2023-06-10T01:52:38;19.90;99.90
26745;DHT22;14342;50.960;13.880;2023-06-10T01:53:39;19.90;99.90
26745;DHT22;14342;50.960;13.880;2023-06-10T01:54:40;19.90;99.90
26745;DHT22;14342;50.960;13.880;2023-06-10T01:55:41;19.90;99.90
26745;DHT22;14342;50.960;13.880;2023-06-10T01:56:42;20.00;99.90
26745;DHT22;14342;50.960;13.880;2023-06-10T01:57:43;19.90;99.90
26745;DHT22;14342;50.960;13.880;2023-06-10T01:58:45;19.90;99.90
26745;DHT22;14342;50.960;13.880;2023-06-10T01:59:45;19.90;99.90
26745;DHT22;14342;50.960;13.880;2023-06-10T02:00:47;19.90;99.90
26745;DHT22;14342;50.960;13.880;2023-06-10T02:01:47;19.90;99.90
26745;DHT22;14342;50.960;13.880;2023-06-10T02:02:49;19.80;99.90
26745;DHT22;14342;50.960;13.880;2023-06-10T02:03:50;19.80;99.90
26745;DHT22;14342;50.960;13.880;2023-06-10T02:04:51;19.80;99.90
26745;DHT22;14342;50.960;13.880;2023-06-10T02:05:52;19.90;99.90
26745;DHT22;14342;50.960;13.880;2023-06-10T02:06:53;19.90;99.90
26745;DHT22;14342;50.960;13.880;2023-06-10T02:07:57;19.80;99.90
26745;DHT22;14342;50.960;13.880;2023-06-10T02:08:58;19.80;99.90
26745;DHT22;14342;50.960;13.880;2023-06-10T02:09:59;19.80;99.90
26745;DHT22;14342;50.960;13.880;2023-06-10T02:11:00;19.80;99.90
26745;DHT22;14342;50.960;13.880;2023-06-10T02:12:01;19.80;99.90
26745;DHT22;14342;50.960;13.880;2023-06-10T02:13:03;19.80;99.90
26745;DHT22;14342;50.960;13.880;2023-06-10T02:14:03;19.80;99.90
26745;DHT22;14342;50.960;13.880;2023-06-10T02:15:05;19.90;99.90
26745;DHT22;14342;50.960;13.880;2023-06-10T02:16:06;19.80;99.90
26745;DHT22;14342;50.960;13.880;2023-06-10T02:17:07;19.80;99.90
26745;DHT22;14342;50.960;13.880;2023-06-10T02:18:12;19.80;99.90
26745;DHT22;14342;50.960;13.880;2023-06-10T02:19:14;19.80;99.90
26745;DHT22;14342;50.960;13.880;2023-06-10T02:20:15;19.80;99.90
26745;DHT22;14342;50.960;13.880;2023-06-10T02:21:16;19.70;99.90
26745;DHT22;14342;50.960;13.880;2023-06-10T02:22:17;19.80;99.90
26745;DHT22;14342;50.960;13.880;2023-06-10T02:23:19;19.50;99.90
26745;DHT22;14342;50.960;13.880;2023-06-10T02:24:20;19.80;99.90
26745;DHT22;14342;50.960;13.880;2023-06-10T02:25:22;19.80;99.90
26745;DHT22;14342;50.960;13.880;2023-06-10T02:26:22;19.80;99.90
26745;DHT22;14342;50.960;13.880;2023-06-10T02:27:26;19.80;99.90
26745;DHT22;14342;50.960;13.880;2023-06-10T02:28:27;19.80;99.90
26745;DHT22;14342;50.960;13.880;2023-06-10T02:29:29;19.80;99.90
26745;DHT22;14342;50.960;13.880;2023-06-10T02:30:29;19.80;99.90
26745;DHT22;14342;50.960;13.880;2023-06-10T02:31:31;19.80;99.90
26745;DHT22;14342;50.960;13.880;2023-06-10T02:32:35;19.80;99.90
26745;DHT22;14342;50.960;13.880;2023-06-10T02:33:36;19.80;99.90
26745;DHT22;14342;50.960;13.880;2023-06-10T02:34:40;19.80;99.90
26745;DHT22;14342;50.960;13.880;2023-06-10T02:35:42;19.80;99.90
26745;DHT22;14342;50.960;13.880;2023-06-10T02:36:44;19.70;99.90
26745;DHT22;14342;50.960;13.880;2023-06-10T02:37:45;19.70;99.90
26745;DHT22;14342;50.960;13.880;2023-06-10T02:38:47;19.70;99.90
26745;DHT22;14342;50.960;13.880;2023-06-10T02:39:48;19.60;99.90
26745;DHT22;14342;50.960;13.880;2023-06-10T02:40:49;19.60;99.90
26745;DHT22;14342;50.960;13.880;2023-06-10T02:41:50;19.60;99.90
26745;DHT22;14342;50.960;13.880;2023-06-10T02:42:52;19.60;99.90
26745;DHT22;14342;50.960;13.880;2023-06-10T02:43:52;19.50;99.90
26745;DHT22;14342;50.960;13.880;2023-06-10T02:44:54;19.50;99.90
26745;DHT22;14342;50.960;13.880;2023-06-10T02:45:55;19.50;99.90
26745;DHT22;14342;50.960;13.880;2023-06-10T02:46:56;19.20;99.90
26745;DHT22;14342;50.960;13.880;2023-06-10T02:47:57;19.50;99.90
26745;DHT22;14342;50.960;13.880;2023-06-10T02:48:58;19.50;99.90
26745;DHT22;14342;50.960;13.880;2023-06-10T02:49:59;19.40;99.90
26745;DHT22;14342;50.960;13.880;2023-06-10T02:51:00;19.40;99.90
26745;DHT22;14342;50.960;13.880;2023-06-10T02:52:02;19.50;99.90
26745;DHT22;14342;50.960;13.880;2023-06-10T02:53:03;19.40;99.90
26745;DHT22;14342;50.960;13.880;2023-06-10T02:54:05;19.40;99.90
26745;DHT22;14342;50.960;13.880;2023-06-10T02:55:07;19.50;99.90
26745;DHT22;14342;50.960;13.880;2023-06-10T02:56:08;19.40;99.90
26745;DHT22;14342;50.960;13.880;2023-06-10T02:57:10;19.40;99.90
26745;DHT22;14342;50.960;13.880;2023-06-10T02:58:10;19.40;99.90
26745;DHT22;14342;50.960;13.880;2023-06-10T02:59:12;19.40;99.90
26745;DHT22;14342;50.960;13.880;2023-06-10T03:00:13;19.40;99.90
26745;DHT22;14342;50.960;13.880;2023-06-10T03:01:15;19.30;99.90
26745;DHT22;14342;50.960;13.880;2023-06-10T03:02:15;19.30;99.90
26745;DHT22;14342;50.960;13.880;2023-06-10T03:03:17;19.30;99.90
26745;DHT22;14342;50.960;13.880;2023-06-10T03:04:18;19.20;99.90
26745;DHT22;14342;50.960;13.880;2023-06-10T03:05:20;19.20;99.90
26745;DHT22;14342;50.960;13.880;2023-06-10T03:06:22;19.10;99.90
26745;DHT22;14342;50.960;13.880;2023-06-10T03:07:26;19.10;99.90
26745;DHT22;14342;50.960;13.880;2023-06-10T03:08:27;19.10;99.90
26745;DHT22;14342;50.960;13.880;2023-06-10T03:09:30;19.10;99.90
26745;DHT22;14342;50.960;13.880;2023-06-10T03:10:30;19.10;99.90
26745;DHT22;14342;50.960;13.880;2023-06-10T03:11:33;19.20;99.90
26745;DHT22;14342;50.960;13.880;2023-06-10T03:12:33;18.90;99.90
26745;DHT22;14342;50.960;13.880;2023-06-10T03:13:35;19.20;99.90
26745;DHT22;14342;50.960;13.880;2023-06-10T03:14:35;19.20;99.90
26745;DHT22;14342;50.960;13.880;2023-06-10T03:15:38;19.10;99.90
26745;DHT22;14342;50.960;13.880;2023-06-10T03:16:41;19.20;99.90
26745;DHT22;14342;50.960;13.880;2023-06-10T03:17:42;19.20;99.90
26745;DHT22;14342;50.960;13.880;2023-06-10T03:18:43;19.20;99.90
26745;DHT22;14342;50.960;13.880;2023-06-10T03:19:45;19.20;99.90
26745;DHT22;14342;50.960;13.880;2023-06-10T03:20:45;19.20;99.90
26745;DHT22;14342;50.960;13.880;2023-06-10T03:21:49;19.20;99.90
26745;DHT22;14342;50.960;13.880;2023-06-10T03:22:50;19.10;99.90
26745;DHT22;14342;50.960;13.880;2023-06-10T03:23:51;19.00;99.90
26745;DHT22;14342;50.960;13.880;2023-06-10T03:24:53;18.90;99.90
26745;DHT22;14342;50.960;13.880;2023-06-10T03:25:55;18.90;99.90
26745;DHT22;14342;50.960;13.880;2023-06-10T03:26:55;18.90;99.90
26745;DHT22;14342;50.960;13.880;2023-06-10T03:27:57;18.90;99.90
26745;DHT22;14342;50.960;13.880;2023-06-10T03:28:57;18.90;99.90
26745;DHT22;14342;50.960;13.880;2023-06-10T03:30:02;18.80;99.90
26745;DHT22;14342;50.960;13.880;2023-06-10T03:31:03;18.70;99.90
26745;DHT22;14342;50.960;13.880;2023-06-10T03:32:05;18.70;99.90
26745;DHT22;14342;50.960;13.880;2023-06-10T03:33:06;18.60;99.90
26745;DHT22;14342;50.960;13.880;2023-06-10T03:34:07;18.60;99.90
26745;DHT22;14342;50.960;13.880;2023-06-10T03:35:08;18.70;99.90
26745;DHT22;14342;50.960;13.880;2023-06-10T03:36:10;18.70;99.90
26745;DHT22;14342;50.960;13.880;2023-06-10T03:37:11;18.70;99.90
26745;DHT22;14342;50.960;13.880;2023-06-10T03:38:12;18.70;99.90
26745;DHT22;14342;50.960;13.880;2023-06-10T03:39:14;18.80;99.90
26745;DHT22;14342;50.960;13.880;2023-06-10T03:40:16;18.80;99.90
26745;DHT22;14342;50.960;13.880;2023-06-10T03:41:17;18.90;99.90
26745;DHT22;14342;50.960;13.880;2023-06-10T03:42:18;18.90;99.90
26745;DHT22;14342;50.960;13.880;2023-06-10T03:43:19;18.90;99.90
26745;DHT22;14342;50.960;13.880;2023-06-10T03:44:20;18.90;99.90
26745;DHT22;14342;50.960;13.880;2023-06-10T03:45:21;19.00;99.90
26745;DHT22;14342;50.960;13.880;2023-06-10T03:46:22;19.00;99.90
26745;DHT22;14342;50.960;13.880;2023-06-10T03:47:24;19.00;99.90
26745;DHT22;14342;50.960;13.880;2023-06-10T03:48:24;19.00;99.90
26745;DHT22;14342;50.960;13.880;2023-06-10T03:49:26;19.00;99.90
26745;DHT22;14342;50.960;13.880;2023-06-10T03:50:29;19.00;99.90
26745;DHT22;14342;50.960;13.880;2023-06-10T03:51:30;19.00;99.90
26745;DHT22;14342;50.960;13.880;2023-06-10T03:52:31;19.00;99.90
26745;DHT22;14342;50.960;13.880;2023-06-10T03:53:33;19.00;99.90
26745;DHT22;14342;50.960;13.880;2023-06-10T03:54:33;19.00;99.90
26745;DHT22;14342;50.960;13.880;2023-06-10T03:55:36;19.00;99.90
26745;DHT22;14342;50.960;13.880;2023-06-10T03:56:37;19.00;99.90
26745;DHT22;14342;50.960;13.880;2023-06-10T03:57:39;19.00;99.90
26745;DHT22;14342;50.960;13.880;2023-06-10T03:58:39;19.00;99.90
26745;DHT22;14342;50.960;13.880;2023-06-10T03:59:41;19.00;99.90
26745;DHT22;14342;50.960;13.880;2023-06-10T04:00:41;19.00;99.90
26745;DHT22;14342;50.960;13.880;2023-06-10T04:01:43;18.90;99.90
26745;DHT22;14342;50.960;13.880;2023-06-10T04:02:44;18.90;99.90
26745;DHT22;14342;50.960;13.880;2023-06-10T04:03:47;19.00;99.90
26745;DHT22;14342;50.960;13.880;2023-06-10T04:04:48;18.90;99.90
26745;DHT22;14342;50.960;13.880;2023-06-10T04:05:51;18.90;99.90
26745;DHT22;14342;50.960;13.880;2023-06-10T04:06:52;18.90;99.90
26745;DHT22;14342;50.960;13.880;2023-06-10T04:07:53;18.90;99.90
26745;DHT22;14342;50.960;13.880;2023-06-10T04:08:54;18.90;99.90
26745;DHT22;14342;50.960;13.880;2023-06-10T04:09:57;18.90;99.90
26745;DHT22;14342;50.960;13.880;2023-06-10T04:10:58;18.90;99.90
26745;DHT22;14342;50.960;13.880;2023-06-10T04:12:00;18.80;99.90
26745;DHT22;14342;50.960;13.880;2023-06-10T04:13:01;18.90;99.90
26745;DHT22;14342;50.960;13.880;2023-06-10T04:14:03;18.80;99.90
26745;DHT22;14342;50.960;13.880;2023-06-10T04:15:04;18.80;99.90
26745;DHT22;14342;50.960;13.880;2023-06-10T04:16:06;18.80;99.90
26745;DHT22;14342;50.960;13.880;2023-06-10T04:17:06;18.70;99.90
26745;DHT22;14342;50.960;13.880;2023-06-10T04:18:08;18.70;99.90
26745;DHT22;14342;50.960;13.880;2023-06-10T04:19:09;18.70;99.90
26745;DHT22;14342;50.960;13.880;2023-06-10T04:20:10;18.60;99.90
26745;DHT22;14342;50.960;13.880;2023-06-10T04:21:11;18.60;99.90
26745;DHT22;14342;50.960;13.880;2023-06-10T04:22:13;18.70;99.90
26745;DHT22;14342;50.960;13.880;2023-06-10T04:23:13;18.70;99.90
26745;DHT22;14342;50.960;13.880;2023-06-10T04:24:15;18.70;99.90
26745;DHT22;14342;50.960;13.880;2023-06-10T04:25:15;18.70;99.90
26745;DHT22;14342;50.960;13.880;2023-06-10T04:26:18;18.60;99.90
26745;DHT22;14342;50.960;13.880;2023-06-10T04:27:19;18.60;99.90
26745;DHT22;14342;50.960;13.880;2023-06-10T04:28:20;18.70;99.90
26745;DHT22;14342;50.960;13.880;2023-06-10T04:29:21;18.60;99.90
26745;DHT22;14342;50.960;13.880;2023-06-10T04:30:22;18.60;99.90
26745;DHT22;14342;50.960;13.880;2023-06-10T04:31:23;18.60;99.90
26745;DHT22;14342;50.960;13.880;2023-06-10T04:32:25;18.70;99.90
26745;DHT22;14342;50.960;13.880;2023-06-10T04:33:26;18.70;99.90
26745;DHT22;14342;50.960;13.880;2023-06-10T04:34:28;18.60;99.90
26745;DHT22;14342;50.960;13.880;2023-06-10T04:35:29;18.70;99.90
26745;DHT22;14342;50.960;13.880;2023-06-10T04:36:30;18.70;99.90
26745;DHT22;14342;50.960;13.880;2023-06-10T04:37:31;18.70;99.90
26745;DHT22;14342;50.960;13.880;2023-06-10T04:38:32;18.70;99.90
26745;DHT22;14342;50.960;13.880;2023-06-10T04:39:33;18.80;99.90
26745;DHT22;14342;50.960;13.880;2023-06-10T04:40:35;18.80;99.90
26745;DHT22;14342;50.960;13.880;2023-06-10T04:41:37;18.80;99.90
26745;DHT22;14342;50.960;13.880;2023-06-10T04:42:38;18.90;99.90
26745;DHT22;14342;50.960;13.880;2023-06-10T04:43:39;18.90;99.90
26745;DHT22;14342;50.960;13.880;2023-06-10T04:44:40;18.90;99.90
26745;DHT22;14342;50.960;13.880;2023-06-10T04:45:41;19.00;99.90
26745;DHT22;14342;50.960;13.880;2023-06-10T04:46:44;19.00;99.90
26745;DHT22;14342;50.960;13.880;2023-06-10T04:47:45;19.00;99.90
26745;DHT22;14342;50.960;13.880;2023-06-10T04:48:47;19.10;99.90
26745;DHT22;14342;50.960;13.880;2023-06-10T04:49:47;19.10;99.90
26745;DHT22;14342;50.960;13.880;2023-06-10T04:50:49;19.10;99.90
26745;DHT22;14342;50.960;13.880;2023-06-10T04:51:50;19.10;99.90
26745;DHT22;14342;50.960;13.880;2023-06-10T04:52:51;19.10;99.90
26745;DHT22;14342;50.960;13.880;2023-06-10T04:53:52;19.20;99.90
26745;DHT22;14342;50.960;13.880;2023-06-10T04:54:54;19.10;99.90
26745;DHT22;14342;50.960;13.880;2023-06-10T04:55:54;19.10;99.90
26745;DHT22;14342;50.960;13.880;2023-06-10T04:56:57;19.20;99.90
26745;DHT22;14342;50.960;13.880;2023-06-10T04:57:58;19.20;99.90
26745;DHT22;14342;50.960;13.880;2023-06-10T04:58:59;19.30;99.90
26745;DHT22;14342;50.960;13.880;2023-06-10T05:00:00;19.30;99.90
26745;DHT22;14342;50.960;13.880;2023-06-10T05:01:01;19.60;99.90
26745;DHT22;14342;50.960;13.880;2023-06-10T05:02:02;19.40;99.90
26745;DHT22;14342;50.960;13.880;2023-06-10T05:03:04;19.40;99.90
26745;DHT22;14342;50.960;13.880;2023-06-10T05:04:04;19.50;99.90
26745;DHT22;14342;50.960;13.880;2023-06-10T05:05:06;19.40;99.90
26745;DHT22;14342;50.960;13.880;2023-06-10T05:06:10;19.40;99.90
26745;DHT22;14342;50.960;13.880;2023-06-10T05:07:11;19.40;99.90
26745;DHT22;14342;50.960;13.880;2023-06-10T05:08:12;19.40;99.90
26745;DHT22;14342;50.960;13.880;2023-06-10T05:09:13;19.40;99.90
26745;DHT22;14342;50.960;13.880;2023-06-10T05:10:14;19.40;99.90
26745;DHT22;14342;50.960;13.880;2023-06-10T05:11:15;19.50;99.90
26745;DHT22;14342;50.960;13.880;2023-06-10T05:12:17;19.50;99.90
26745;DHT22;14342;50.960;13.880;2023-06-10T05:13:19;19.50;99.90
26745;DHT22;14342;50.960;13.880;2023-06-10T05:14:19;19.60;99.90
26745;DHT22;14342;50.960;13.880;2023-06-10T05:15:22;19.60;99.90
26745;DHT22;14342;50.960;13.880;2023-06-10T05:16:23;19.60;99.90
26745;DHT22;14342;50.960;13.880;2023-06-10T05:17:24;19.60;99.90
26745;DHT22;14342;50.960;13.880;2023-06-10T05:18:25;19.70;99.90
26745;DHT22;14342;50.960;13.880;2023-06-10T05:19:27;19.70;99.90
26745;DHT22;14342;50.960;13.880;2023-06-10T05:20:27;19.70;99.90
26745;DHT22;14342;50.960;13.880;2023-06-10T05:21:29;19.70;99.90
26745;DHT22;14342;50.960;13.880;2023-06-10T05:22:30;19.70;99.90
26745;DHT22;14342;50.960;13.880;2023-06-10T05:23:31;19.80;99.90
26745;DHT22;14342;50.960;13.880;2023-06-10T05:24:32;19.80;99.90
26745;DHT22;14342;50.960;13.880;2023-06-10T05:25:33;19.80;99.90
26745;DHT22;14342;50.960;13.880;2023-06-10T05:26:34;19.90;99.90
26745;DHT22;14342;50.960;13.880;2023-06-10T05:27:38;19.90;99.90
26745;DHT22;14342;50.960;13.880;2023-06-10T05:28:40;20.00;99.90
26745;DHT22;14342;50.960;13.880;2023-06-10T05:29:42;20.00;99.90
26745;DHT22;14342;50.960;13.880;2023-06-10T05:30:42;20.10;99.90
26745;DHT22;14342;50.960;13.880;2023-06-10T05:31:44;20.10;99.90
26745;DHT22;14342;50.960;13.880;2023-06-10T05:32:44;20.10;99.90
26745;DHT22;14342;50.960;13.880;2023-06-10T05:33:46;20.20;99.90
26745;DHT22;14342;50.960;13.880;2023-06-10T05:34:46;20.20;99.90
26745;DHT22;14342;50.960;13.880;2023-06-10T05:35:48;20.30;99.90
26745;DHT22;14342;50.960;13.880;2023-06-10T05:36:48;20.30;99.90
26745;DHT22;14342;50.960;13.880;2023-06-10T05:37:50;20.20;99.90
26745;DHT22;14342;50.960;13.880;2023-06-10T05:38:50;20.20;99.90
26745;DHT22;14342;50.960;13.880;2023-06-10T05:39:52;20.20;99.90
26745;DHT22;14342;50.960;13.880;2023-06-10T05:40:52;20.20;99.90
26745;DHT22;14342;50.960;13.880;2023-06-10T05:41:57;20.20;99.90
26745;DHT22;14342;50.960;13.880;2023-06-10T05:43:00;20.30;99.90
26745;DHT22;14342;50.960;13.880;2023-06-10T05:44:02;20.30;99.90
26745;DHT22;14342;50.960;13.880;2023-06-10T05:45:03;20.40;99.90
26745;DHT22;14342;50.960;13.880;2023-06-10T05:46:04;20.30;99.90
26745;DHT22;14342;50.960;13.880;2023-06-10T05:47:05;20.30;99.90
26745;DHT22;14342;50.960;13.880;2023-06-10T05:48:06;20.30;99.90
26745;DHT22;14342;50.960;13.880;2023-06-10T05:49:07;20.20;99.90
26745;DHT22;14342;50.960;13.880;2023-06-10T05:50:09;20.40;99.90
26745;DHT22;14342;50.960;13.880;2023-06-10T05:51:10;20.30;99.90
26745;DHT22;14342;50.960;13.880;2023-06-10T05:52:11;20.20;99.90
26745;DHT22;14342;50.960;13.880;2023-06-10T05:53:12;20.20;99.90
26745;DHT22;14342;50.960;13.880;2023-06-10T05:54:15;20.20;99.90
26745;DHT22;14342;50.960;13.880;2023-06-10T05:55:16;20.30;99.90
26745;DHT22;14342;50.960;13.880;2023-06-10T05:56:18;20.30;99.90
26745;DHT22;14342;50.960;13.880;2023-06-10T05:57:18;20.40;99.90
26745;DHT22;14342;50.960;13.880;2023-06-10T05:58:21;20.50;99.90
26745;DHT22;14342;50.960;13.880;2023-06-10T05:59:22;20.50;99.90
26745;DHT22;14342;50.960;13.880;2023-06-10T06:00:23;20.50;99.90
26745;DHT22;14342;50.960;13.880;2023-06-10T06:01:24;20.50;99.90
26745;DHT22;14342;50.960;13.880;2023-06-10T06:02:26;20.50;99.90
26745;DHT22;14342;50.960;13.880;2023-06-10T06:03:26;20.60;99.90
26745;DHT22;14342;50.960;13.880;2023-06-10T06:04:28;20.50;99.90
26745;DHT22;14342;50.960;13.880;2023-06-10T06:05:29;20.50;99.90
26745;DHT22;14342;50.960;13.880;2023-06-10T06:06:35;20.60;99.90
26745;DHT22;14342;50.960;13.880;2023-06-10T06:07:36;20.70;99.90
26745;DHT22;14342;50.960;13.880;2023-06-10T06:08:37;20.80;99.90
26745;DHT22;14342;50.960;13.880;2023-06-10T06:09:38;20.80;99.90
26745;DHT22;14342;50.960;13.880;2023-06-10T06:10:39;20.80;99.90
26745;DHT22;14342;50.960;13.880;2023-06-10T06:11:40;20.90;99.90
26745;DHT22;14342;50.960;13.880;2023-06-10T06:12:41;21.00;99.90
26745;DHT22;14342;50.960;13.880;2023-06-10T06:13:44;21.00;99.90
26745;DHT22;14342;50.960;13.880;2023-06-10T06:14:44;21.10;99.90
26745;DHT22;14342;50.960;13.880;2023-06-10T06:15:46;21.20;99.90
26745;DHT22;14342;50.960;13.880;2023-06-10T06:16:47;21.30;99.90
26745;DHT22;14342;50.960;13.880;2023-06-10T06:17:48;21.40;99.90
26745;DHT22;14342;50.960;13.880;2023-06-10T06:18:49;21.40;99.90
26745;DHT22;14342;50.960;13.880;2023-06-10T06:19:50;21.50;99.90
26745;DHT22;14342;50.960;13.880;2023-06-10T06:20:52;21.60;99.90
26745;DHT22;14342;50.960;13.880;2023-06-10T06:21:53;21.60;99.90
26745;DHT22;14342;50.960;13.880;2023-06-10T06:22:54;21.70;99.90